createdAt,value
2022-12-28T00:00:34.599Z,11.57
2022-12-28T00:05:38.554Z,13.13
2022-12-28T00:11:07.620Z,10.50
2022-12-28T00:16:09.652Z,8.33
2022-12-28T00:21:11.516Z,12.03
2022-12-28T00:26:15.106Z,11.83
2022-12-28T00:31:19.330Z,11.57
2022-12-28T00:37:10.104Z,18.47
2022-12-28T00:41:47.980Z,14.60
2022-12-28T00:46:52.151Z,12.83
2022-12-28T00:51:56.419Z,10.80
2022-12-28T00:56:58.161Z,16.97
2022-12-28T01:02:02.329Z,14.63
2022-12-28T01:07:06.849Z,18.60
2022-12-28T01:12:10.890Z,8.97
2022-12-28T01:17:13.891Z,13.70
2022-12-28T01:22:21.455Z,15.37
2022-12-28T01:27:25.446Z,10.47
2022-12-28T01:32:29.538Z,25.43
2022-12-28T01:37:35.869Z,13.63
2022-12-28T01:42:40.128Z,17.23
2022-12-28T01:47:45.439Z,18.67
2022-12-28T01:52:53.758Z,14.80
2022-12-28T01:58:06.327Z,11.13
2022-12-28T02:03:16.779Z,16.47
2022-12-28T02:08:54.713Z,10.80
2022-12-28T02:13:58.521Z,11.00
2022-12-28T02:19:05.022Z,10.97
2022-12-28T02:24:40.623Z,14.27
2022-12-28T02:29:53.457Z,20.57
2022-12-28T02:35:16.304Z,12.03
2022-12-28T02:40:23.758Z,10.37
2022-12-28T02:46:07.501Z,10.50
2022-12-28T02:51:25.479Z,15.67
2022-12-28T02:56:57.810Z,15.13
2022-12-28T03:02:20.071Z,12.23
2022-12-28T03:07:51.456Z,11.93
2022-12-28T03:13:01.665Z,13.00
2022-12-28T03:18:35.156Z,16.50
2022-12-28T03:23:57.193Z,15.13
2022-12-28T03:29:24.409Z,18.47
2022-12-28T03:34:26.810Z,13.47
2022-12-28T03:40:02.819Z,12.93
2022-12-28T03:45:46.432Z,14.83
2022-12-28T03:50:45.763Z,19.93
2022-12-28T03:55:50.640Z,17.83
2022-12-28T04:01:00.330Z,12.63
2022-12-28T04:06:07.738Z,18.27
2022-12-28T04:11:10.113Z,11.67
2022-12-28T04:16:13.526Z,21.63
2022-12-28T04:21:17.020Z,14.63
2022-12-28T04:26:21.058Z,17.43
2022-12-28T04:31:30.851Z,15.27
2022-12-28T04:36:40.047Z,16.47
2022-12-28T04:41:47.895Z,21.23
2022-12-28T04:46:52.147Z,26.47
2022-12-28T04:51:56.177Z,17.33
2022-12-28T04:57:00.352Z,19.03
2022-12-28T05:02:06.062Z,14.77
2022-12-28T05:07:07.821Z,21.47
2022-12-28T05:12:09.500Z,14.97
2022-12-28T05:17:11.221Z,14.90
2022-12-28T05:22:12.961Z,10.00
2022-12-28T05:27:19.627Z,12.20
2022-12-28T05:32:21.473Z,10.27
2022-12-28T05:37:23.095Z,11.70
2022-12-28T05:42:24.825Z,13.43
2022-12-28T05:47:28.818Z,13.03
2022-12-28T05:52:33.135Z,11.27
2022-12-28T05:57:39.847Z,9.23
2022-12-28T06:02:44.588Z,13.33
2022-12-28T06:07:52.152Z,12.60
2022-12-28T06:12:56.470Z,16.90
2022-12-28T06:17:58.217Z,12.30
2022-12-28T06:23:05.138Z,13.50
2022-12-28T06:28:10.302Z,12.13
2022-12-28T06:33:11.989Z,11.83
2022-12-28T06:38:13.716Z,10.90
2022-12-28T06:43:20.571Z,14.90
2022-12-28T06:48:22.359Z,14.10
2022-12-28T06:53:34.209Z,9.43
2022-12-28T06:58:41.296Z,9.27
2022-12-28T07:03:44.191Z,13.23
2022-12-28T07:08:46.150Z,14.20
2022-12-28T07:13:52.892Z,13.33
2022-12-28T07:18:54.816Z,18.07
2022-12-28T07:23:57.535Z,9.40
2022-12-28T07:29:04.472Z,15.80
2022-12-28T07:34:08.433Z,10.00
2022-12-28T07:39:12.611Z,15.40
2022-12-28T07:44:17.049Z,12.43
2022-12-28T07:49:18.787Z,10.97
2022-12-28T07:54:20.538Z,8.97
2022-12-28T07:59:31.131Z,12.33
2022-12-28T08:04:33.271Z,14.77
2022-12-28T08:09:37.531Z,13.37
2022-12-28T08:14:41.554Z,13.93
2022-12-28T08:19:45.774Z,16.47
2022-12-28T08:24:47.593Z,17.20
2022-12-28T08:29:51.759Z,18.33
2022-12-28T08:34:53.579Z,12.77
2022-12-28T08:39:55.309Z,15.53
2022-12-28T08:44:58.019Z,13.10
2022-12-28T08:49:59.935Z,11.27
2022-12-28T08:55:06.164Z,16.13
2022-12-28T09:00:11.604Z,10.97
2022-12-28T09:05:15.693Z,17.67
2022-12-28T09:10:19.974Z,16.30
2022-12-28T09:15:27.355Z,17.70
2022-12-28T09:20:31.583Z,17.67
2022-12-28T09:25:34.288Z,19.67
2022-12-28T09:30:41.069Z,20.07
2022-12-28T09:35:42.876Z,26.73
2022-12-28T09:40:47.085Z,24.00
2022-12-28T09:45:53.098Z,44.40
2022-12-28T09:50:55.355Z,44.60
2022-12-28T09:56:03.514Z,25.80
2022-12-28T10:01:12.067Z,28.33
2022-12-28T10:06:22.158Z,26.03
2022-12-28T10:11:28.433Z,36.37
2022-12-28T10:16:36.613Z,28.60
2022-12-28T10:21:38.394Z,24.80
2022-12-28T10:26:41.608Z,26.07
2022-12-28T10:32:14.162Z,22.47
2022-12-28T10:37:18.990Z,14.47
2022-12-28T10:42:42.442Z,22.10
2022-12-28T10:47:46.975Z,9.57
2022-12-28T10:52:58.097Z,19.07
2022-12-28T10:58:31.381Z,13.68
2022-12-28T11:03:37.043Z,14.10
2022-12-28T11:08:39.871Z,16.90
2022-12-28T11:13:41.769Z,14.10
2022-12-28T11:18:43.625Z,13.27
2022-12-28T11:23:51.892Z,12.50
2022-12-28T11:28:59.052Z,13.60
2022-12-28T11:34:07.224Z,7.07
2022-12-28T11:39:27.352Z,9.63
2022-12-28T11:44:34.825Z,6.83
2022-12-28T11:49:39.058Z,9.43
2022-12-28T11:54:57.617Z,5.07
2022-12-28T12:00:22.789Z,7.43
2022-12-28T12:05:37.728Z,8.13
2022-12-28T12:10:44.802Z,8.37
2022-12-28T12:15:51.202Z,6.47
2022-12-28T12:21:15.052Z,13.10
2022-12-28T12:26:20.990Z,10.83
2022-12-28T12:31:35.101Z,8.73
2022-12-28T12:36:55.031Z,15.80
2022-12-28T12:42:18.930Z,15.77
2022-12-28T12:48:01.679Z,13.83
2022-12-28T12:53:21.758Z,14.47
2022-12-28T12:58:29.515Z,10.40
2022-12-28T13:03:42.124Z,11.67
2022-12-28T13:09:03.281Z,12.60
2022-12-28T13:14:19.919Z,8.60
2022-12-28T13:19:29.087Z,9.57
2022-12-28T13:24:35.605Z,5.90
2022-12-28T13:29:41.168Z,6.60
2022-12-28T13:34:49.419Z,5.90
2022-12-28T13:39:51.244Z,6.57
2022-12-28T13:44:52.908Z,6.07
2022-12-28T13:50:00.692Z,7.67
2022-12-28T13:55:13.445Z,7.50
2022-12-28T14:00:19.929Z,6.47
2022-12-28T14:05:24.974Z,6.20
2022-12-28T14:10:27.674Z,6.80
2022-12-28T14:15:41.589Z,7.30
2022-12-28T14:20:52.089Z,8.27
2022-12-28T14:25:55.090Z,6.95
2022-12-28T14:30:57.047Z,6.75
2022-12-28T14:36:03.089Z,3.70
2022-12-28T14:41:05.629Z,3.17
2022-12-28T14:46:32.237Z,3.37
2022-12-28T14:51:42.481Z,5.07
2022-12-28T14:56:49.999Z,4.97
2022-12-28T15:01:54.415Z,3.27
2022-12-28T15:06:56.261Z,4.07
2022-12-28T15:12:15.628Z,3.77
2022-12-28T15:17:20.627Z,2.90
2022-12-28T15:22:26.965Z,3.40
2022-12-28T15:27:32.138Z,4.93
2022-12-28T15:32:35.886Z,7.80
2022-12-28T15:37:40.727Z,4.30
2022-12-28T15:42:46.242Z,5.67
2022-12-28T15:47:49.149Z,7.20
2022-12-28T15:52:53.232Z,4.47
2022-12-28T15:58:02.060Z,4.37
2022-12-28T16:03:05.954Z,6.13
2022-12-28T16:08:07.945Z,3.73
2022-12-28T16:13:09.673Z,3.27
2022-12-28T16:18:11.349Z,3.83
2022-12-28T16:23:13.246Z,4.43
2022-12-28T16:28:20.569Z,3.47
2022-12-28T16:33:23.294Z,4.20
2022-12-28T16:38:27.874Z,6.87
2022-12-28T16:43:32.705Z,5.77
2022-12-28T16:48:35.516Z,8.03
2022-12-28T16:53:38.638Z,8.27
2022-12-28T16:58:43.136Z,9.43
2022-12-28T17:03:50.475Z,8.03
2022-12-28T17:08:52.273Z,9.73
2022-12-28T17:14:05.161Z,9.00
2022-12-28T17:19:07.472Z,15.97
2022-12-28T17:24:09.611Z,21.47
2022-12-28T17:29:13.843Z,16.40
2022-12-28T17:34:15.691Z,14.87
2022-12-28T17:39:17.629Z,22.47
2022-12-28T17:44:21.424Z,16.83
2022-12-28T17:49:26.022Z,14.73
2022-12-28T17:54:27.710Z,15.40
2022-12-28T17:59:29.586Z,12.27
2022-12-28T18:04:35.525Z,14.40
2022-12-28T18:09:39.502Z,17.50
2022-12-28T18:14:41.310Z,16.97
2022-12-28T18:19:53.412Z,15.60
2022-12-28T18:24:55.220Z,12.53
2022-12-28T18:29:59.356Z,12.50
2022-12-28T18:35:04.009Z,16.93
2022-12-28T18:40:08.381Z,7.67
2022-12-28T18:45:12.662Z,16.47
2022-12-28T18:50:15.655Z,12.20
2022-12-28T18:55:27.759Z,17.00
2022-12-28T19:00:29.839Z,12.20
2022-12-28T19:05:32.483Z,12.63
2022-12-28T19:10:34.213Z,17.40
2022-12-28T19:15:38.234Z,11.20
2022-12-28T19:20:44.492Z,14.67
2022-12-28T19:25:46.356Z,9.30
2022-12-28T19:30:50.315Z,13.60
2022-12-28T19:35:52.091Z,12.87
2022-12-28T19:40:57.953Z,15.50
2022-12-28T19:46:10.611Z,17.50
2022-12-28T19:51:13.682Z,16.63
2022-12-28T19:56:18.145Z,17.40
2022-12-28T20:01:26.674Z,12.77
2022-12-28T20:06:29.849Z,19.93
2022-12-28T20:11:31.594Z,15.77
2022-12-28T20:16:37.186Z,15.70
2022-12-28T20:21:41.965Z,23.23
2022-12-28T20:26:43.706Z,14.40
2022-12-28T20:31:45.600Z,17.10
2022-12-28T20:36:47.911Z,16.60
2022-12-28T20:42:08.471Z,22.03
2022-12-28T20:47:12.662Z,20.33
2022-12-28T20:52:14.449Z,14.23
2022-12-28T20:57:16.130Z,13.53
2022-12-28T21:02:17.902Z,19.07
2022-12-28T21:07:19.808Z,16.23
2022-12-28T21:12:23.580Z,23.27
2022-12-28T21:17:30.164Z,16.00
2022-12-28T21:22:34.200Z,19.43
2022-12-28T21:27:35.935Z,19.57
2022-12-28T21:32:40.313Z,15.67
2022-12-28T21:37:46.871Z,15.53
2022-12-28T21:42:48.590Z,13.57
2022-12-28T21:47:50.305Z,18.07
2022-12-28T21:52:56.744Z,17.50
2022-12-28T21:58:02.784Z,17.33
2022-12-28T22:03:25.551Z,23.30
2022-12-28T22:08:48.467Z,17.97
2022-12-28T22:13:51.770Z,15.17
2022-12-28T22:19:04.197Z,12.40
2022-12-28T22:24:11.839Z,8.97
2022-12-28T22:29:18.310Z,12.37
2022-12-28T22:34:20.168Z,12.50
2022-12-28T22:39:21.893Z,8.33
2022-12-28T22:44:23.580Z,8.97
2022-12-28T22:49:27.762Z,10.20
2022-12-28T22:54:32.406Z,6.87
2022-12-28T22:59:34.493Z,6.60
2022-12-28T23:04:41.758Z,8.33
2022-12-28T23:09:47.268Z,7.53
2022-12-28T23:15:09.990Z,7.93
2022-12-28T23:20:31.088Z,7.00
2022-12-28T23:25:51.443Z,8.10
2022-12-28T23:30:53.720Z,6.53
2022-12-28T23:36:00.669Z,6.97
2022-12-28T23:41:25.007Z,6.50
2022-12-28T23:46:26.781Z,9.43
2022-12-28T23:51:31.989Z,11.10
2022-12-28T23:56:38.602Z,8.60
